Time;durP1;ratioP1;P1;durP2;ratioP2;P2;SDS_P1;SDS_P2;PMS_P1;PMS_P2;Temp;Humidity;BMP_temperature;BMP_pressure;BME280_temperature;BME280_humidity;BME280_pressure;Samples;Min_cycle;Max_cycle;Signal;HPM_P1;HPM_P2
2022/04/09 00:01:42;;;;;;;8.18;2.05;;;3.80;99.90;;;;;;5077691;28;20097;-66
2022/04/09 00:04:09;;;;;;;5.88;2.25;;;3.70;99.90;;;;;;5094509;28;20082;-66
2022/04/09 00:06:36;;;;;;;18.05;3.75;;;3.70;99.90;;;;;;5080410;28;20077;-66
2022/04/09 00:09:02;;;;;;;11.38;2.22;;;3.70;99.90;;;;;;5097382;28;20075;-66
2022/04/09 00:11:29;;;;;;;5.97;2.00;;;3.70;99.90;;;;;;5095841;28;20083;-66
2022/04/09 00:13:56;;;;;;;15.07;3.08;;;3.60;99.90;;;;;;5078350;28;20091;-67
2022/04/09 00:16:24;;;;;;;10.85;2.40;;;3.60;99.90;;;;;;5095392;28;20500;-66
2022/04/09 00:18:51;;;;;;;9.20;3.22;;;3.50;99.90;;;;;;5095403;28;20048;-66
2022/04/09 00:21:18;;;;;;;10.38;2.67;;;3.50;99.90;;;;;;5095969;28;20088;-66
2022/04/09 00:23:45;;;;;;;15.98;2.40;;;3.50;99.90;;;;;;5077889;28;20140;-67
2022/04/09 00:26:11;;;;;;;10.77;3.55;;;3.50;99.90;;;;;;5094986;28;20433;-66
2022/04/09 00:28:38;;;;;;;7.68;2.50;;;3.50;99.90;;;;;;5077356;28;20090;-66
2022/04/09 00:31:05;;;;;;;7.38;2.17;;;3.60;99.90;;;;;;5095542;28;20090;-66
2022/04/09 00:33:34;;;;;;;9.73;2.75;;;3.60;99.90;;;;;;5094933;28;20579;-66
2022/04/09 00:36:01;;;;;;;9.15;2.40;;;3.60;99.90;;;;;;5077603;28;20048;-66
2022/04/09 00:38:29;;;;;;;10.52;3.35;;;3.60;99.90;;;;;;5077628;28;20091;-66
2022/04/09 00:40:56;;;;;;;5.18;2.22;;;3.60;99.90;;;;;;5076951;28;20056;-66
2022/04/09 00:43:23;;;;;;;10.40;2.17;;;3.60;99.90;;;;;;5095027;28;20048;-66
2022/04/09 00:45:50;;;;;;;6.35;1.98;;;3.60;99.90;;;;;;5073159;28;20131;-66
2022/04/09 00:48:20;;;;;;;6.70;2.53;;;3.70;99.90;;;;;;5056395;28;20407;-66
2022/04/09 00:50:49;;;;;;;5.33;1.67;;;3.80;99.90;;;;;;5074980;28;20492;-66
2022/04/09 00:53:18;;;;;;;5.25;1.55;;;3.80;99.90;;;;;;5056576;28;20080;-66
2022/04/09 00:58:30;;;;;;;5.85;2.05;;;3.90;99.90;;;;;;5075034;28;20052;-66
2022/04/09 01:00:57;;;;;;;5.38;1.50;;;3.80;99.90;;;;;;5067670;28;20056;-66
2022/04/09 01:03:24;;;;;;;10.95;2.08;;;3.80;99.90;;;;;;5095163;28;20080;-66
2022/04/09 01:05:52;;;;;;;3.55;1.90;;;3.70;99.90;;;;;;5076957;28;20075;-66
2022/04/09 01:08:19;;;;;;;4.22;1.40;;;3.60;99.90;;;;;;5076554;28;20131;-66
2022/04/09 01:10:47;;;;;;;5.15;1.55;;;3.60;99.90;;;;;;5076727;28;20051;-66
2022/04/09 01:13:15;;;;;;;5.07;1.40;;;3.50;99.90;;;;;;5073206;28;20075;-66
2022/04/09 01:15:42;;;;;;;5.68;1.50;;;3.50;99.90;;;;;;5073839;28;20087;-66
2022/04/09 01:18:09;;;;;;;4.85;1.48;;;3.40;99.90;;;;;;5056877;28;20174;-66
2022/04/09 01:20:36;;;;;;;7.80;1.83;;;3.40;99.90;;;;;;5058591;28;20067;-66
2022/04/09 01:23:04;;;;;;;6.00;1.45;;;3.40;99.90;;;;;;5075725;28;20052;-66
2022/04/09 01:25:31;;;;;;;7.28;1.70;;;3.40;99.90;;;;;;5094660;28;20056;-66
2022/04/09 01:27:58;;;;;;;5.68;1.60;;;3.40;99.90;;;;;;5076520;28;20059;-66
2022/04/09 01:30:25;;;;;;;8.48;2.22;;;3.40;99.90;;;;;;5094506;28;20076;-66
2022/04/09 01:32:52;;;;;;;8.93;2.03;;;3.40;99.90;;;;;;5094486;28;20449;-65
2022/04/09 01:35:19;;;;;;;4.75;1.70;;;3.40;99.90;;;;;;5075859;28;20087;-66
2022/04/09 01:37:46;;;;;;;6.10;1.45;;;3.40;99.90;;;;;;5075793;28;20087;-66
2022/04/09 01:40:14;;;;;;;7.13;2.72;;;3.40;99.90;;;;;;5094456;28;20052;-66
2022/04/09 01:42:41;;;;;;;5.32;1.83;;;3.40;99.90;;;;;;5075750;28;20079;-66
2022/04/09 01:45:09;;;;;;;5.78;1.77;;;3.40;99.90;;;;;;5076251;28;20135;-66
2022/04/09 01:47:40;;;;;;;4.45;1.70;;;3.30;99.90;;;;;;5094118;28;20127;-66
2022/04/09 01:50:09;;;;;;;8.88;1.45;;;3.20;99.90;;;;;;5093833;28;20052;-66
2022/04/09 01:52:36;;;;;;;8.35;1.85;;;3.20;99.90;;;;;;5093986;28;20431;-66
2022/04/09 01:55:04;;;;;;;4.45;1.65;;;3.10;99.90;;;;;;5093948;28;20094;-66
2022/04/09 01:57:32;;;;;;;8.15;1.95;;;3.10;99.90;;;;;;5093256;28;20499;-67
2022/04/09 01:59:59;;;;;;;5.70;1.70;;;3.10;99.90;;;;;;5075002;28;20567;-65
2022/04/09 02:02:26;;;;;;;3.25;1.65;;;3.10;99.90;;;;;;5075890;28;20062;-66
2022/04/09 02:04:53;;;;;;;6.30;2.08;;;3.10;99.90;;;;;;5074756;28;20131;-66
2022/04/09 02:07:20;;;;;;;13.35;3.05;;;3.20;99.90;;;;;;5093980;28;20083;-66
2022/04/09 02:09:47;;;;;;;14.20;2.15;;;3.20;99.90;;;;;;5093732;28;20055;-66
2022/04/09 02:12:13;;;;;;;8.27;1.80;;;3.20;99.90;;;;;;5075236;28;20048;-66
2022/04/09 02:14:41;;;;;;;7.53;2.10;;;3.10;99.90;;;;;;5093621;28;20131;-66
2022/04/09 02:17:08;;;;;;;12.27;2.53;;;3.10;99.90;;;;;;5093856;28;20132;-66
2022/04/09 02:19:35;;;;;;;9.63;2.20;;;3.00;99.90;;;;;;5092662;28;20071;-66
2022/04/09 02:22:02;;;;;;;6.13;1.77;;;3.00;99.90;;;;;;5093655;28;20393;-66
2022/04/09 02:24:29;;;;;;;4.45;1.77;;;3.00;99.90;;;;;;5074770;28;20135;-66
2022/04/09 02:26:56;;;;;;;10.80;2.63;;;2.90;99.90;;;;;;5093407;28;20495;-65
2022/04/09 02:29:22;;;;;;;14.40;2.00;;;2.90;99.90;;;;;;5093312;28;20473;-66
2022/04/09 02:31:51;;;;;;;10.00;2.10;;;2.80;99.90;;;;;;5092941;28;20095;-65
2022/04/09 02:34:17;;;;;;;11.98;2.20;;;2.80;99.90;;;;;;5092937;28;20424;-65
2022/04/09 02:36:44;;;;;;;9.00;1.95;;;2.80;99.90;;;;;;5093220;28;20147;-66
2022/04/09 02:39:11;;;;;;;5.30;1.80;;;2.90;99.90;;;;;;5092801;28;20055;-66
2022/04/09 02:41:39;;;;;;;3.58;1.52;;;3.00;99.90;;;;;;5075340;28;20090;-66
2022/04/09 02:44:07;;;;;;;7.13;1.83;;;3.10;99.90;;;;;;5093555;28;20130;-66
2022/04/09 02:46:34;;;;;;;8.60;1.85;;;3.20;99.90;;;;;;5092745;28;20088;-66
2022/04/09 02:49:03;;;;;;;5.88;1.88;;;3.20;99.90;;;;;;5093151;28;20048;-66
2022/04/09 02:51:29;;;;;;;12.65;2.03;;;3.20;99.90;;;;;;5093176;28;20087;-66
2022/04/09 02:53:56;;;;;;;5.57;2.22;;;3.10;99.90;;;;;;5092486;28;20093;-66
2022/04/09 02:56:23;;;;;;;11.00;3.13;;;3.10;99.90;;;;;;5075099;28;20155;-66
2022/04/09 02:58:50;;;;;;;9.82;2.20;;;3.10;99.90;;;;;;5075087;28;20056;-66
2022/04/09 03:01:17;;;;;;;7.85;1.83;;;3.10;99.90;;;;;;5074253;28;20088;-66
2022/04/09 03:03:44;;;;;;;5.13;1.77;;;3.10;99.90;;;;;;5092809;28;20483;-66
2022/04/09 03:06:12;;;;;;;9.20;2.65;;;3.10;99.90;;;;;;5092796;28;20055;-66
2022/04/09 03:08:39;;;;;;;6.80;2.15;;;3.20;99.90;;;;;;5092266;28;20578;-66
2022/04/09 03:11:05;;;;;;;8.57;2.42;;;3.30;99.90;;;;;;5093100;28;20079;-67
2022/04/09 03:13:32;;;;;;;8.30;1.98;;;3.30;99.90;;;;;;5078437;28;20091;-67
2022/04/09 03:15:59;;;;;;;10.15;1.85;;;3.30;99.90;;;;;;5096823;28;20060;-69
2022/04/09 03:18:26;;;;;;;8.82;1.92;;;3.30;99.90;;;;;;5097203;28;20048;-69
2022/04/09 03:20:53;;;;;;;5.97;2.28;;;3.30;99.90;;;;;;5078483;28;20083;-66
2022/04/09 03:23:21;;;;;;;6.68;1.60;;;3.30;99.90;;;;;;5096635;28;20076;-68
2022/04/09 03:25:48;;;;;;;7.78;1.85;;;3.30;99.90;;;;;;5078886;28;20083;-67
2022/04/09 03:28:15;;;;;;;3.17;1.60;;;3.30;99.90;;;;;;5096434;28;20083;-67
2022/04/09 03:30:43;;;;;;;8.18;2.85;;;3.30;99.90;;;;;;5078538;28;20476;-67
2022/04/09 03:33:11;;;;;;;6.53;1.73;;;3.30;99.90;;;;;;5096818;28;20423;-66
2022/04/09 03:35:38;;;;;;;7.55;2.13;;;3.30;99.90;;;;;;5096106;28;20131;-66
2022/04/09 03:38:04;;;;;;;5.70;1.70;;;3.20;99.90;;;;;;5096646;28;20094;-66
2022/04/09 03:40:33;;;;;;;9.55;2.08;;;3.10;99.90;;;;;;5096437;28;20080;-66
2022/04/09 03:42:59;;;;;;;5.43;1.83;;;3.10;99.90;;;;;;5077779;28;20095;-66
2022/04/09 03:45:26;;;;;;;9.32;1.92;;;3.00;99.90;;;;;;5078256;28;20139;-65
2022/04/09 03:47:53;;;;;;;6.38;1.80;;;2.90;99.90;;;;;;5096659;28;20076;-65
2022/04/09 03:50:20;;;;;;;7.68;1.92;;;2.90;99.90;;;;;;5078044;28;20249;-66
2022/04/09 03:52:48;;;;;;;6.10;1.83;;;2.80;99.90;;;;;;5078252;28;20101;-66
2022/04/09 03:55:15;;;;;;;6.88;1.80;;;2.80;99.90;;;;;;5096075;28;20474;-66
2022/04/09 03:57:43;;;;;;;9.73;2.38;;;2.80;99.90;;;;;;5076573;28;20083;-65
2022/04/09 04:00:11;;;;;;;6.75;2.20;;;2.70;99.90;;;;;;5095760;28;20055;-66
2022/04/09 04:02:38;;;;;;;6.53;2.03;;;2.70;99.90;;;;;;5096247;28;20119;-66
2022/04/09 04:05:06;;;;;;;6.20;2.05;;;2.70;99.90;;;;;;5094734;28;20079;-65
2022/04/09 04:07:33;;;;;;;5.25;2.03;;;2.70;99.90;;;;;;5078241;28;20044;-66
2022/04/09 04:10:03;;;;;;;7.70;1.48;;;2.70;99.90;;;;;;5094659;28;20130;-66
2022/04/09 04:12:30;;;;;;;7.50;1.70;;;2.70;99.90;;;;;;5096169;28;20087;-66
2022/04/09 04:14:58;;;;;;;6.97;1.98;;;2.70;99.90;;;;;;5078002;28;20139;-66
2022/04/09 04:17:25;;;;;;;13.73;2.45;;;2.70;99.90;;;;;;5077086;28;20585;-66
2022/04/09 04:19:52;;;;;;;9.93;2.22;;;2.80;99.90;;;;;;5096176;28;20091;-66
2022/04/09 04:22:19;;;;;;;6.20;1.73;;;2.80;99.90;;;;;;5095624;28;20534;-66
2022/04/09 04:24:46;;;;;;;9.82;1.88;;;2.90;99.90;;;;;;5094782;28;20484;-66
2022/04/09 04:27:13;;;;;;;10.23;2.65;;;2.90;99.90;;;;;;5095804;28;20489;-66
2022/04/09 04:29:39;;;;;;;8.40;2.28;;;2.80;99.90;;;;;;5077530;28;20143;-66
2022/04/09 04:32:08;;;;;;;8.80;1.92;;;2.80;99.90;;;;;;5077067;28;20083;-66
2022/04/09 04:34:35;;;;;;;6.28;1.52;;;2.80;99.90;;;;;;5077646;28;20132;-65
2022/04/09 04:37:02;;;;;;;6.88;1.58;;;2.70;99.90;;;;;;5095194;28;20440;-66
2022/04/09 04:39:29;;;;;;;6.00;1.40;;;2.70;99.90;;;;;;5076934;28;20048;-66
2022/04/09 04:41:56;;;;;;;7.55;1.73;;;2.60;99.90;;;;;;5095425;28;20091;-66
2022/04/09 04:44:22;;;;;;;8.30;2.45;;;2.60;99.90;;;;;;5095261;28;20090;-66
2022/04/09 04:46:49;;;;;;;10.52;1.67;;;2.50;99.90;;;;;;5076880;28;20134;-65
2022/04/09 04:49:17;;;;;;;9.30;1.60;;;2.50;99.90;;;;;;5095568;28;20052;-65
2022/04/09 04:51:44;;;;;;;4.55;1.63;;;2.50;99.90;;;;;;5077095;28;20134;-65
2022/04/09 04:54:11;;;;;;;9.95;2.25;;;2.40;99.90;;;;;;5094752;28;20139;-66
2022/04/09 04:56:37;;;;;;;7.30;1.63;;;2.40;99.90;;;;;;5094967;28;20109;-66
2022/04/09 04:59:07;;;;;;;10.88;2.17;;;2.40;99.90;;;;;;5094628;28;20093;-66
2022/04/09 05:01:34;;;;;;;9.63;1.85;;;2.40;99.90;;;;;;5077264;28;20055;-66
2022/04/09 05:04:01;;;;;;;10.05;2.35;;;2.40;99.90;;;;;;5076879;28;20086;-66
2022/04/09 05:06:30;;;;;;;4.68;1.73;;;2.40;99.90;;;;;;5094618;28;20052;-66
2022/04/09 05:08:57;;;;;;;5.00;1.70;;;2.40;99.90;;;;;;5077132;28;20403;-66
2022/04/09 05:11:24;;;;;;;12.27;1.98;;;2.50;99.90;;;;;;5076888;28;20102;-66
2022/04/09 05:13:51;;;;;;;10.10;2.00;;;2.50;99.90;;;;;;5076032;28;20113;-66
2022/04/09 05:16:17;;;;;;;7.80;2.25;;;2.50;99.90;;;;;;5094885;28;20084;-66
2022/04/09 05:18:44;;;;;;;6.22;2.28;;;2.60;99.90;;;;;;5094164;28;20562;-66
2022/04/09 05:21:11;;;;;;;7.40;2.22;;;2.90;99.90;;;;;;5094091;28;20051;-66
2022/04/09 05:23:39;;;;;;;6.80;1.70;;;3.00;99.90;;;;;;5094714;28;20087;-66
2022/04/09 05:26:06;;;;;;;5.65;1.70;;;3.10;99.90;;;;;;5076715;28;20086;-66
2022/04/09 05:28:33;;;;;;;11.65;2.10;;;3.20;99.90;;;;;;5075801;28;20547;-67
2022/04/09 05:31:00;;;;;;;8.93;2.10;;;3.20;99.90;;;;;;5076665;28;20092;-66
2022/04/09 05:33:27;;;;;;;12.20;1.98;;;3.30;99.90;;;;;;5094178;28;20132;-66
2022/04/09 05:35:55;;;;;;;11.10;1.95;;;3.20;99.90;;;;;;5093342;28;20487;-66
2022/04/09 05:38:21;;;;;;;15.60;2.47;;;3.30;99.90;;;;;;5094314;28;20055;-67
2022/04/09 05:40:49;;;;;;;7.88;1.88;;;3.30;99.90;;;;;;5093915;28;20150;-66
2022/04/09 05:43:16;;;;;;;7.70;2.03;;;3.40;99.90;;;;;;5075694;28;20496;-67
2022/04/09 05:45:43;;;;;;;9.10;2.05;;;3.50;99.90;;;;;;5076303;28;20467;-66
2022/04/09 05:48:10;;;;;;;8.95;2.42;;;3.50;99.90;;;;;;5076257;28;20563;-66
2022/04/09 05:50:37;;;;;;;9.82;2.13;;;3.70;99.90;;;;;;5093771;28;20526;-66
2022/04/09 05:53:04;;;;;;;7.05;2.15;;;3.70;99.90;;;;;;5094178;28;20052;-67
2022/04/09 05:55:30;;;;;;;8.20;1.88;;;3.60;99.90;;;;;;5074890;28;20051;-66
2022/04/09 05:57:59;;;;;;;5.75;1.40;;;3.50;99.90;;;;;;5075984;28;20131;-66
2022/04/09 06:00:26;;;;;;;7.10;2.00;;;3.40;99.90;;;;;;5075489;28;20076;-66
2022/04/09 06:02:53;;;;;;;6.05;1.77;;;3.40;99.90;;;;;;5059032;28;20080;-66
2022/04/09 06:05:20;;;;;;;5.13;1.52;;;3.40;99.90;;;;;;5077054;28;20079;-66
2022/04/09 06:07:48;;;;;;;7.38;1.80;;;3.50;99.90;;;;;;5060367;28;20131;-66
2022/04/09 06:10:15;;;;;;;10.65;2.25;;;3.70;99.90;;;;;;5067787;28;20048;-66
2022/04/09 06:12:42;;;;;;;13.80;2.20;;;4.00;99.90;;;;;;5084799;28;20080;-66
2022/04/09 06:15:11;;;;;;;11.55;2.22;;;4.10;99.90;;;;;;5068445;28;20044;-65
2022/04/09 06:17:39;;;;;;;13.07;2.28;;;4.20;99.90;;;;;;5067286;28;20254;-66
2022/04/09 06:20:07;;;;;;;12.75;3.03;;;4.20;99.90;;;;;;5087347;28;20054;-65
2022/04/09 06:22:34;;;;;;;8.82;2.15;;;4.40;99.90;;;;;;5090573;28;20087;-67
2022/04/09 06:25:01;;;;;;;6.72;2.05;;;5.10;99.90;;;;;;5084358;28;20048;-66
2022/04/09 06:27:28;;;;;;;7.40;2.30;;;5.50;99.90;;;;;;5091317;28;20083;-66
2022/04/09 06:29:55;;;;;;;20.42;3.20;;;5.70;99.90;;;;;;5085251;28;20048;-66
2022/04/09 06:32:23;;;;;;;10.25;2.90;;;5.70;99.90;;;;;;5086044;28;20440;-66
2022/04/09 06:34:49;;;;;;;11.68;3.08;;;5.60;99.90;;;;;;5070665;28;20088;-66
2022/04/09 06:37:16;;;;;;;14.23;2.83;;;6.00;99.90;;;;;;5085335;28;20131;-67
2022/04/09 06:39:43;;;;;;;10.68;2.45;;;6.20;99.90;;;;;;5086124;28;20526;-67
2022/04/09 06:42:10;;;;;;;10.02;2.35;;;6.20;99.90;;;;;;5083661;28;20156;-67
2022/04/09 06:44:36;;;;;;;8.65;2.13;;;6.10;99.90;;;;;;5067279;28;20201;-67
2022/04/09 06:47:08;;;;;;;6.93;2.25;;;5.90;99.90;;;;;;5065289;28;20132;-65
2022/04/09 06:49:38;;;;;;;8.10;2.55;;;6.00;99.90;;;;;;5068044;28;20403;-66
2022/04/09 06:52:05;;;;;;;13.83;2.87;;;6.30;99.90;;;;;;5068236;28;20044;-67
2022/04/09 06:54:32;;;;;;;7.32;1.98;;;6.60;99.90;;;;;;5065079;28;20301;-66
2022/04/09 06:56:59;;;;;;;8.98;2.10;;;6.70;99.90;;;;;;5083694;28;20093;-66
2022/04/09 06:59:26;;;;;;;11.02;2.78;;;6.80;99.90;;;;;;5083566;28;20515;-67
2022/04/09 07:01:55;;;;;;;9.07;2.35;;;7.70;99.90;;;;;;5060795;28;20076;-67
2022/04/09 07:04:22;;;;;;;12.30;2.47;;;8.70;99.90;;;;;;5066361;28;20066;-67
2022/04/09 07:06:51;;;;;;;9.60;1.70;;;9.50;99.90;;;;;;5066931;28;20504;-68
2022/04/09 07:09:17;;;;;;;9.05;2.20;;;10.10;99.90;;;;;;5083369;28;20067;-68
2022/04/09 07:11:44;;;;;;;9.02;1.70;;;10.70;99.90;;;;;;5067912;28;20139;-68
2022/04/09 07:14:11;;;;;;;8.27;1.88;;;10.50;99.90;;;;;;5065156;28;20456;-69
2022/04/09 07:16:38;;;;;;;8.85;2.00;;;10.10;99.90;;;;;;5083125;28;20139;-69
2022/04/09 07:19:08;;;;;;;7.68;2.08;;;9.50;99.90;;;;;;5065279;28;20041;-69
2022/04/09 07:21:35;;;;;;;10.70;2.17;;;9.30;99.90;;;;;;5068372;28;20496;-69
2022/04/09 07:24:04;;;;;;;5.03;1.90;;;9.50;99.90;;;;;;5066511;28;20514;-68
2022/04/09 07:26:31;;;;;;;5.82;2.03;;;9.80;99.90;;;;;;5084331;28;20052;-68
2022/04/09 07:28:57;;;;;;;8.65;1.77;;;9.90;99.90;;;;;;5078353;28;20064;-68
2022/04/09 07:31:24;;;;;;;11.50;2.35;;;10.30;99.90;;;;;;5061610;28;20060;-68
2022/04/09 07:33:51;;;;;;;7.55;2.00;;;10.40;99.90;;;;;;5085228;28;20127;-68
2022/04/09 07:36:18;;;;;;;8.60;1.75;;;10.60;99.90;;;;;;5070505;28;20135;-67
2022/04/09 07:38:45;;;;;;;5.75;1.80;;;11.20;99.90;;;;;;5067943;28;20109;-67
2022/04/09 07:41:13;;;;;;;10.55;2.70;;;12.20;99.90;;;;;;5070222;28;20506;-67
2022/04/09 07:43:40;;;;;;;7.90;2.00;;;13.00;99.90;;;;;;5054701;28;20060;-68
2022/04/09 07:46:07;;;;;;;8.82;2.17;;;13.40;99.90;;;;;;5053470;28;20135;-67
2022/04/09 07:48:35;;;;;;;6.65;1.65;;;12.80;99.90;;;;;;5051386;28;20127;-67
2022/04/09 07:51:02;;;;;;;3.65;1.42;;;11.90;99.90;;;;;;5052330;28;20086;-67
2022/04/09 07:53:29;;;;;;;7.35;1.90;;;11.70;99.90;;;;;;5058973;28;20473;-68
2022/04/09 07:55:55;;;;;;;9.38;2.00;;;12.30;99.90;;;;;;5063600;28;20060;-68
2022/04/09 07:58:24;;;;;;;8.13;2.03;;;12.80;99.90;;;;;;5067159;28;20102;-70
2022/04/09 08:00:51;;;;;;;7.50;2.35;;;13.50;99.90;;;;;;5079397;28;20136;-68
2022/04/09 08:03:17;;;;;;;10.98;2.30;;;13.80;99.90;;;;;;5076926;28;20128;-68
2022/04/09 08:05:44;;;;;;;5.53;1.90;;;14.00;99.90;;;;;;5072059;28;20080;-68
2022/04/09 08:08:11;;;;;;;11.05;2.08;;;13.60;99.90;;;;;;5061976;28;20087;-70
2022/04/09 08:10:39;;;;;;;7.72;1.70;;;12.90;99.90;;;;;;5065734;28;20071;-69
2022/04/09 08:13:06;;;;;;;6.32;2.03;;;12.00;99.90;;;;;;5090984;28;20155;-69
2022/04/09 08:15:34;;;;;;;8.80;2.15;;;11.70;99.90;;;;;;5058364;28;20102;-68
2022/04/09 08:18:04;;;;;;;10.30;2.17;;;12.10;99.90;;;;;;5065693;28;20483;-68
2022/04/09 08:20:31;;;;;;;9.65;1.85;;;13.40;99.90;;;;;;5066435;28;20075;-70
2022/04/09 08:22:59;;;;;;;7.93;1.50;;;13.80;99.90;;;;;;5061688;28;20503;-69
2022/04/09 08:25:26;;;;;;;5.05;1.80;;;14.20;99.90;;;;;;5079754;28;20052;-69
2022/04/09 08:27:53;;;;;;;4.30;1.58;;;15.00;99.90;;;;;;5076631;28;20512;-69
2022/04/09 08:30:21;;;;;;;5.07;2.03;;;15.40;96.20;;;;;;5072929;28;20101;-70
2022/04/09 08:32:50;;;;;;;7.22;1.80;;;14.80;93.80;;;;;;5069467;28;20404;-69
2022/04/09 08:35:17;;;;;;;7.60;1.88;;;14.70;95.80;;;;;;5064045;28;20109;-69
2022/04/09 08:37:44;;;;;;;6.70;1.85;;;14.80;96.10;;;;;;5070593;28;20140;-69
2022/04/09 08:40:14;;;;;;;5.70;1.80;;;15.40;95.10;;;;;;5055867;28;20140;-69
2022/04/09 08:42:41;;;;;;;6.13;1.60;;;16.00;93.00;;;;;;5056228;28;20053;-69
2022/04/09 08:45:09;;;;;;;12.05;2.22;;;16.50;91.20;;;;;;5074754;28;20076;-69
2022/04/09 08:47:36;;;;;;;7.57;2.05;;;15.40;92.40;;;;;;5074993;28;20048;-69
2022/04/09 08:50:05;;;;;;;8.98;2.28;;;14.50;94.20;;;;;;5057323;28;20044;-68
2022/04/09 08:52:34;;;;;;;9.57;2.10;;;13.40;94.90;;;;;;5074449;28;20048;-68
2022/04/09 08:55:00;;;;;;;6.25;1.95;;;12.60;97.30;;;;;;5057398;28;20095;-68
2022/04/09 08:57:28;;;;;;;3.08;1.00;;;12.20;99.90;;;;;;5074906;28;20083;-68
2022/04/09 08:59:56;;;;;;;3.95;0.95;;;11.40;99.90;;;;;;5056543;28;20551;-68
2022/04/09 09:02:23;;;;;;;3.83;0.90;;;10.60;99.90;;;;;;5075114;28;20095;-68
2022/04/09 09:04:50;;;;;;;4.57;0.90;;;10.00;99.90;;;;;;5074988;28;20056;-68
2022/04/09 09:07:20;;;;;;;3.05;1.10;;;9.40;99.90;;;;;;5056407;28;20106;-68
2022/04/09 09:09:47;;;;;;;5.80;0.88;;;9.00;99.90;;;;;;5056136;28;20048;-68
2022/04/09 09:12:27;;;;;;;3.45;1.27;;;9.50;99.90;;;;;;5056483;28;20131;-68
2022/04/09 09:14:55;;;;;;;2.92;0.80;;;11.00;99.90;;;;;;5057090;28;20063;-68
2022/04/09 09:17:28;;;;;;;5.53;1.08;;;12.50;99.90;;;;;;5056361;28;20140;-69
2022/04/09 09:19:55;;;;;;;5.15;1.33;;;13.80;99.90;;;;;;5074125;28;20048;-69
2022/04/09 09:22:36;;;;;;;5.30;1.38;;;14.80;99.90;;;;;;5056799;28;20083;-67
2022/04/09 09:25:05;;;;;;;3.15;1.17;;;15.70;97.70;;;;;;5074848;28;20048;-67
2022/04/09 09:27:32;;;;;;;8.27;1.52;;;16.40;96.80;;;;;;5055721;28;20059;-67
2022/04/09 09:29:59;;;;;;;5.90;1.40;;;17.20;95.70;;;;;;5056414;28;20106;-67
2022/04/09 09:32:27;;;;;;;4.75;1.27;;;17.70;94.00;;;;;;5056529;28;20064;-67
2022/04/09 09:34:55;;;;;;;5.75;1.63;;;18.10;93.00;;;;;;5073650;28;20048;-68
2022/04/09 09:37:25;;;;;;;4.47;1.60;;;18.20;91.10;;;;;;5073936;28;20492;-68
2022/04/09 09:39:52;;;;;;;6.97;1.90;;;18.30;90.60;;;;;;5074105;28;20052;-68
2022/04/09 09:42:19;;;;;;;4.85;1.63;;;18.00;87.70;;;;;;5055644;28;20564;-68
2022/04/09 09:44:46;;;;;;;7.75;1.85;;;17.10;89.80;;;;;;5074008;28;20553;-69
2022/04/09 09:47:14;;;;;;;3.08;1.30;;;16.00;91.00;;;;;;5056122;28;20084;-68
2022/04/09 09:49:53;;;;;;;4.60;1.40;;;14.00;90.90;;;;;;5073394;28;20048;-68
2022/04/09 09:52:26;;;;;;;4.55;1.10;;;12.50;99.50;;;;;;5067645;28;20048;-67
2022/04/09 09:55:00;;;;;;;4.85;1.00;;;11.50;99.90;;;;;;5093582;28;20048;-67
2022/04/09 09:57:29;;;;;;;5.10;0.70;;;11.00;99.90;;;;;;5094071;28;20123;-67
2022/04/09 09:59:57;;;;;;;1.63;0.50;;;11.30;99.90;;;;;;5075278;28;20454;-67
2022/04/09 10:02:26;;;;;;;1.02;0.45;;;11.90;99.90;;;;;;5075405;28;20083;-68
2022/04/09 10:04:54;;;;;;;0.68;0.45;;;12.50;99.90;;;;;;5075775;28;20058;-68
2022/04/09 10:07:22;;;;;;;2.75;0.65;;;13.40;99.90;;;;;;5093125;28;20053;-68
2022/04/09 10:09:50;;;;;;;1.10;0.40;;;14.20;99.90;;;;;;5075119;28;20154;-68
2022/04/09 10:12:19;;;;;;;0.85;0.40;;;14.70;99.90;;;;;;5075755;28;20052;-68
2022/04/09 10:14:51;;;;;;;0.90;0.43;;;15.30;98.90;;;;;;5077862;28;20060;-68
2022/04/09 10:17:19;;;;;;;1.20;0.60;;;15.60;97.70;;;;;;5075786;28;20400;-70
2022/04/09 10:19:52;;;;;;;4.22;0.90;;;16.10;96.90;;;;;;5064523;28;20471;-69
2022/04/09 10:22:21;;;;;;;3.38;0.93;;;16.90;94.80;;;;;;5072503;28;20397;-69
2022/04/09 10:24:49;;;;;;;5.38;1.40;;;17.10;91.50;;;;;;5068705;28;20059;-69
2022/04/09 10:27:35;;;;;;;3.10;0.85;;;16.30;90.80;;;;;;5054710;28;20134;-69
2022/04/09 10:30:03;;;;;;;4.13;0.90;;;16.60;92.00;;;;;;5054174;28;20050;-69
2022/04/09 10:32:43;;;;;;;3.75;0.95;;;17.30;92.40;;;;;;5064161;28;20381;-70
2022/04/09 10:35:31;;;;;;;2.83;1.05;;;17.70;90.70;;;;;;5068602;28;20056;-69
2022/04/09 10:38:17;;;;;;;4.90;1.30;;;18.50;89.80;;;;;;5071441;28;20059;-69
2022/04/09 10:41:24;;;;;;;4.10;1.00;;;18.90;84.80;;;;;;5054440;28;20051;-69
2022/04/09 10:43:52;;;;;;;3.67;0.73;;;19.00;82.20;;;;;;5067341;28;20063;-69
2022/04/09 10:46:21;;;;;;;2.58;0.77;;;18.80;82.80;;;;;;5084828;28;20051;-69
2022/04/09 10:48:48;;;;;;;2.63;0.80;;;17.70;81.60;;;;;;5062739;28;20047;-69
2022/04/09 10:51:16;;;;;;;3.53;0.68;;;17.70;82.00;;;;;;5061319;28;20518;-69
2022/04/09 10:53:44;;;;;;;4.93;0.93;;;17.70;82.30;;;;;;5074739;28;20492;-71
2022/04/09 10:56:20;;;;;;;2.85;0.98;;;17.40;78.20;;;;;;5074220;28;20084;-69
2022/04/09 10:59:04;;;;;;;3.85;1.00;;;17.60;81.80;;;;;;5071302;28;20048;-69
2022/04/09 11:01:50;;;;;;;3.03;1.20;;;18.50;80.80;;;;;;5074737;28;20121;-69
2022/04/09 11:04:36;;;;;;;4.40;1.00;;;18.90;77.60;;;;;;5092855;28;20101;-69
2022/04/09 11:07:05;;;;;;;4.35;1.00;;;18.80;76.70;;;;;;5074292;28;20105;-70
2022/04/09 11:09:43;;;;;;;2.72;1.10;;;18.80;78.80;;;;;;5093103;28;20150;-70
2022/04/09 11:12:10;;;;;;;5.07;1.30;;;19.10;75.50;;;;;;5073922;28;20087;-70
2022/04/09 11:14:49;;;;;;;4.32;1.35;;;18.10;76.70;;;;;;5075054;28;20077;-69
2022/04/09 11:17:20;;;;;;;5.45;1.50;;;17.20;75.60;;;;;;5074882;28;20048;-69
2022/04/09 11:19:48;;;;;;;3.80;1.20;;;15.90;78.90;;;;;;5074255;28;20411;-69
2022/04/09 11:22:15;;;;;;;6.03;1.30;;;14.90;80.60;;;;;;5092961;28;20048;-70
2022/04/09 11:24:42;;;;;;;6.88;1.88;;;14.40;84.50;;;;;;5092972;28;20474;-69
2022/04/09 11:27:10;;;;;;;5.10;1.60;;;14.00;86.50;;;;;;5074112;28;20450;-68
2022/04/09 11:29:39;;;;;;;5.50;1.25;;;14.00;87.90;;;;;;5074712;28;20059;-68
2022/04/09 11:32:18;;;;;;;7.88;1.48;;;14.80;87.10;;;;;;5074996;28;20044;-69
2022/04/09 11:34:52;;;;;;;5.88;1.20;;;15.20;86.00;;;;;;5096225;28;20052;-68
2022/04/09 11:37:20;;;;;;;4.35;1.42;;;15.00;86.50;;;;;;5078363;28;20048;-68
2022/04/09 11:39:48;;;;;;;3.80;1.20;;;14.40;84.50;;;;;;5096913;28;20052;-68
2022/04/09 11:42:16;;;;;;;5.65;1.42;;;14.10;85.90;;;;;;5096189;28;20080;-68
2022/04/09 11:44:43;;;;;;;5.15;1.40;;;14.30;87.20;;;;;;5078473;28;20051;-68
2022/04/09 11:47:14;;;;;;;4.63;1.20;;;15.20;86.40;;;;;;5077653;28;20136;-69
2022/04/09 11:49:42;;;;;;;8.48;1.20;;;16.20;85.10;;;;;;5096785;28;20047;-69
2022/04/09 11:52:09;;;;;;;4.43;1.55;;;16.40;84.30;;;;;;5096451;28;20500;-69
2022/04/09 11:54:38;;;;;;;4.68;1.30;;;15.60;82.60;;;;;;5077920;28;20070;-69
2022/04/09 11:57:10;;;;;;;5.88;1.90;;;14.40;85.60;;;;;;5096428;28;20044;-68
2022/04/09 11:59:37;;;;;;;6.53;1.60;;;13.30;87.90;;;;;;5096370;28;20044;-68
2022/04/09 12:02:05;;;;;;;4.88;1.42;;;13.00;91.30;;;;;;5073462;28;20139;-69
2022/04/09 12:04:37;;;;;;;4.90;1.50;;;13.70;92.90;;;;;;5067103;28;20132;-69
2022/04/09 12:07:05;;;;;;;2.97;1.20;;;14.80;90.20;;;;;;5078254;28;20055;-78
2022/04/09 12:09:33;;;;;;;2.20;0.90;;;15.30;86.50;;;;;;5063272;28;20053;-69
2022/04/09 12:12:01;;;;;;;2.58;0.93;;;15.30;85.40;;;;;;5082950;28;20080;-69
2022/04/09 12:14:29;;;;;;;4.10;1.05;;;15.60;82.70;;;;;;5070854;28;20085;-69
2022/04/09 12:16:56;;;;;;;2.55;1.00;;;15.30;81.40;;;;;;5091998;28;20083;-69
2022/04/09 12:19:30;;;;;;;6.13;1.20;;;15.80;82.00;;;;;;5074325;28;20078;-69
2022/04/09 12:22:12;;;;;;;3.20;0.85;;;16.10;81.10;;;;;;5087111;28;20071;-69
2022/04/09 12:24:47;;;;;;;4.90;1.40;;;14.90;81.60;;;;;;5089110;28;20182;-68
2022/04/09 12:27:14;;;;;;;6.35;1.00;;;14.80;85.00;;;;;;5079881;28;20083;-69
2022/04/09 12:29:48;;;;;;;4.68;1.35;;;15.30;83.20;;;;;;5058261;28;20527;-69
2022/04/09 12:32:16;;;;;;;3.38;1.25;;;14.90;83.40;;;;;;5074488;28;20105;-69
2022/04/09 12:34:53;;;;;;;4.68;1.65;;;14.60;84.10;;;;;;5073765;28;20045;-69
2022/04/09 12:37:22;;;;;;;4.07;1.20;;;14.90;85.90;;;;;;5091536;28;20048;-69
2022/04/09 12:39:50;;;;;;;4.20;1.27;;;15.20;84.90;;;;;;5059345;28;20441;-69
2022/04/09 12:42:17;;;;;;;4.35;1.33;;;14.70;85.50;;;;;;5058592;28;20131;-69
2022/04/09 12:44:44;;;;;;;4.60;1.33;;;14.30;85.40;;;;;;5073494;28;20052;-69
2022/04/09 12:47:11;;;;;;;6.90;1.70;;;13.80;87.50;;;;;;5074055;28;20102;-69
2022/04/09 12:49:40;;;;;;;3.67;1.42;;;14.20;88.30;;;;;;5069116;28;20045;-70
2022/04/09 12:52:10;;;;;;;3.70;1.10;;;15.40;90.20;;;;;;5056043;28;20475;-69
2022/04/09 12:54:39;;;;;;;6.10;1.55;;;16.30;85.00;;;;;;5055919;28;20413;-69
2022/04/09 12:57:06;;;;;;;6.55;1.33;;;16.40;83.60;;;;;;5074485;28;20045;-76
2022/04/09 12:59:33;;;;;;;5.05;1.77;;;16.30;83.70;;;;;;5073630;28;20044;-77